sensor_id;sensor_type;location;lat;lon;timestamp;temperature;humidity
42715;DHT22;28351;51.480;5.706;2024-03-29T00:01:59;8.20;99.90
42715;DHT22;28351;51.480;5.706;2024-03-29T00:04:25;8.30;99.90
42715;DHT22;28351;51.480;5.706;2024-03-29T00:06:50;8.30;99.90
42715;DHT22;28351;51.480;5.706;2024-03-29T00:09:16;8.20;99.90
42715;DHT22;28351;51.480;5.706;2024-03-29T00:11:42;8.30;99.90
42715;DHT22;28351;51.480;5.706;2024-03-29T00:14:07;8.30;99.90
42715;DHT22;28351;51.480;5.706;2024-03-29T00:16:33;8.30;99.90
42715;DHT22;28351;51.480;5.706;2024-03-29T00:18:58;8.30;99.90
42715;DHT22;28351;51.480;5.706;2024-03-29T00:21:24;8.20;99.90
42715;DHT22;28351;51.480;5.706;2024-03-29T00:23:49;8.20;99.90
42715;DHT22;28351;51.480;5.706;2024-03-29T00:26:16;8.20;99.90
42715;DHT22;28351;51.480;5.706;2024-03-29T00:28:42;8.10;99.90
42715;DHT22;28351;51.480;5.706;2024-03-29T00:31:08;8.10;99.90
42715;DHT22;28351;51.480;5.706;2024-03-29T00:33:34;8.20;99.90
42715;DHT22;28351;51.480;5.706;2024-03-29T00:35:59;8.10;99.90
42715;DHT22;28351;51.480;5.706;2024-03-29T00:38:25;8.00;99.90
42715;DHT22;28351;51.480;5.706;2024-03-29T00:40:50;7.90;99.90
42715;DHT22;28351;51.480;5.706;2024-03-29T00:43:16;7.80;99.90
42715;DHT22;28351;51.480;5.706;2024-03-29T00:45:42;7.90;99.90
42715;DHT22;28351;51.480;5.706;2024-03-29T00:48:07;7.90;99.90
42715;DHT22;28351;51.480;5.706;2024-03-29T00:50:33;7.90;99.90
42715;DHT22;28351;51.480;5.706;2024-03-29T00:52:59;8.00;99.90
42715;DHT22;28351;51.480;5.706;2024-03-29T00:55:25;8.10;99.90
42715;DHT22;28351;51.480;5.706;2024-03-29T00:57:51;8.00;99.90
42715;DHT22;28351;51.480;5.706;2024-03-29T01:00:16;8.00;99.90
42715;DHT22;28351;51.480;5.706;2024-03-29T01:02:42;8.10;99.90
42715;DHT22;28351;51.480;5.706;2024-03-29T01:05:08;8.20;99.90
42715;DHT22;28351;51.480;5.706;2024-03-29T01:07:34;8.30;99.90
42715;DHT22;28351;51.480;5.706;2024-03-29T01:10:00;8.30;99.90
42715;DHT22;28351;51.480;5.706;2024-03-29T01:12:25;8.30;99.90
42715;DHT22;28351;51.480;5.706;2024-03-29T01:14:51;8.40;99.90
42715;DHT22;28351;51.480;5.706;2024-03-29T01:17:16;8.40;99.90
42715;DHT22;28351;51.480;5.706;2024-03-29T01:19:42;8.40;99.90
42715;DHT22;28351;51.480;5.706;2024-03-29T01:22:08;8.40;99.90
42715;DHT22;28351;51.480;5.706;2024-03-29T01:24:33;8.40;99.90
42715;DHT22;28351;51.480;5.706;2024-03-29T01:26:59;8.40;99.90
42715;DHT22;28351;51.480;5.706;2024-03-29T01:29:25;8.30;99.90
42715;DHT22;28351;51.480;5.706;2024-03-29T01:31:51;8.40;99.90
42715;DHT22;28351;51.480;5.706;2024-03-29T01:34:16;8.40;99.90
42715;DHT22;28351;51.480;5.706;2024-03-29T01:36:43;8.40;99.90
42715;DHT22;28351;51.480;5.706;2024-03-29T01:39:08;8.30;99.90
42715;DHT22;28351;51.480;5.706;2024-03-29T01:41:36;8.40;99.90
42715;DHT22;28351;51.480;5.706;2024-03-29T01:44:02;8.40;99.90
42715;DHT22;28351;51.480;5.706;2024-03-29T01:46:27;8.40;99.90
42715;DHT22;28351;51.480;5.706;2024-03-29T01:48:54;8.40;99.90
42715;DHT22;28351;51.480;5.706;2024-03-29T01:51:21;8.40;99.90
42715;DHT22;28351;51.480;5.706;2024-03-29T01:53:52;8.40;99.90
42715;DHT22;28351;51.480;5.706;2024-03-29T01:56:18;8.40;99.90
42715;DHT22;28351;51.480;5.706;2024-03-29T01:58:45;8.40;99.90
42715;DHT22;28351;51.480;5.706;2024-03-29T02:01:11;8.50;99.90
42715;DHT22;28351;51.480;5.706;2024-03-29T02:03:37;8.60;99.90
42715;DHT22;28351;51.480;5.706;2024-03-29T02:06:03;8.60;99.90
42715;DHT22;28351;51.480;5.706;2024-03-29T02:08:30;8.60;99.90
42715;DHT22;28351;51.480;5.706;2024-03-29T02:10:56;8.60;99.90
42715;DHT22;28351;51.480;5.706;2024-03-29T02:13:23;8.60;99.90
42715;DHT22;28351;51.480;5.706;2024-03-29T02:15:48;8.60;99.90
42715;DHT22;28351;51.480;5.706;2024-03-29T02:18:14;8.70;99.90
42715;DHT22;28351;51.480;5.706;2024-03-29T02:20:40;8.70;99.90
42715;DHT22;28351;51.480;5.706;2024-03-29T02:23:14;8.80;99.90
42715;DHT22;28351;51.480;5.706;2024-03-29T02:25:41;8.80;99.90
42715;DHT22;28351;51.480;5.706;2024-03-29T02:28:07;8.90;99.90
42715;DHT22;28351;51.480;5.706;2024-03-29T02:30:33;9.00;99.90
42715;DHT22;28351;51.480;5.706;2024-03-29T02:32:59;9.00;99.90
42715;DHT22;28351;51.480;5.706;2024-03-29T02:35:25;9.10;99.90
42715;DHT22;28351;51.480;5.706;2024-03-29T02:37:51;9.00;99.90
42715;DHT22;28351;51.480;5.706;2024-03-29T02:40:17;9.10;99.90
42715;DHT22;28351;51.480;5.706;2024-03-29T02:42:43;9.20;99.90
42715;DHT22;28351;51.480;5.706;2024-03-29T02:45:09;9.20;99.80
42715;DHT22;28351;51.480;5.706;2024-03-29T02:47:35;9.20;99.90
42715;DHT22;28351;51.480;5.706;2024-03-29T02:50:01;9.20;99.90
42715;DHT22;28351;51.480;5.706;2024-03-29T02:52:27;9.20;99.70
42715;DHT22;28351;51.480;5.706;2024-03-29T02:54:54;9.30;99.90
42715;DHT22;28351;51.480;5.706;2024-03-29T02:57:20;9.40;99.70
42715;DHT22;28351;51.480;5.706;2024-03-29T02:59:45;9.40;99.40
42715;DHT22;28351;51.480;5.706;2024-03-29T03:02:11;9.40;99.70
42715;DHT22;28351;51.480;5.706;2024-03-29T03:04:36;9.40;99.90
42715;DHT22;28351;51.480;5.706;2024-03-29T03:07:02;9.40;99.80
42715;DHT22;28351;51.480;5.706;2024-03-29T03:09:46;9.40;99.70
42715;DHT22;28351;51.480;5.706;2024-03-29T03:12:31;9.40;99.60
42715;DHT22;28351;51.480;5.706;2024-03-29T03:14:57;9.40;99.80
42715;DHT22;28351;51.480;5.706;2024-03-29T03:17:23;9.30;99.90
42715;DHT22;28351;51.480;5.706;2024-03-29T03:19:51;9.30;99.90
42715;DHT22;28351;51.480;5.706;2024-03-29T03:22:17;9.20;99.90
42715;DHT22;28351;51.480;5.706;2024-03-29T03:24:42;9.10;99.90
42715;DHT22;28351;51.480;5.706;2024-03-29T03:27:08;9.10;99.90
42715;DHT22;28351;51.480;5.706;2024-03-29T03:29:34;9.10;99.90
42715;DHT22;28351;51.480;5.706;2024-03-29T03:31:59;9.20;99.90
42715;DHT22;28351;51.480;5.706;2024-03-29T03:34:25;9.20;99.90
42715;DHT22;28351;51.480;5.706;2024-03-29T03:36:50;9.30;99.90
42715;DHT22;28351;51.480;5.706;2024-03-29T03:39:16;9.30;99.90
42715;DHT22;28351;51.480;5.706;2024-03-29T03:41:42;9.30;99.90
42715;DHT22;28351;51.480;5.706;2024-03-29T03:44:07;9.30;99.90
42715;DHT22;28351;51.480;5.706;2024-03-29T03:46:33;9.30;99.90
42715;DHT22;28351;51.480;5.706;2024-03-29T03:48:58;9.10;99.90
42715;DHT22;28351;51.480;5.706;2024-03-29T03:51:24;8.90;99.90
42715;DHT22;28351;51.480;5.706;2024-03-29T03:53:49;8.80;99.90
42715;DHT22;28351;51.480;5.706;2024-03-29T03:56:15;8.70;99.90
42715;DHT22;28351;51.480;5.706;2024-03-29T03:58:41;8.60;99.90
42715;DHT22;28351;51.480;5.706;2024-03-29T04:01:09;8.50;99.90
42715;DHT22;28351;51.480;5.706;2024-03-29T04:03:34;8.30;99.90
42715;DHT22;28351;51.480;5.706;2024-03-29T04:06:03;8.20;99.90
42715;DHT22;28351;51.480;5.706;2024-03-29T04:08:29;8.20;99.90
42715;DHT22;28351;51.480;5.706;2024-03-29T04:10:54;8.20;99.90
42715;DHT22;28351;51.480;5.706;2024-03-29T04:13:20;8.10;99.90
42715;DHT22;28351;51.480;5.706;2024-03-29T04:15:45;8.00;99.90
42715;DHT22;28351;51.480;5.706;2024-03-29T04:18:11;8.00;99.90
42715;DHT22;28351;51.480;5.706;2024-03-29T04:20:36;7.90;99.90
42715;DHT22;28351;51.480;5.706;2024-03-29T04:23:06;7.90;99.90
42715;DHT22;28351;51.480;5.706;2024-03-29T04:25:31;7.80;99.90
42715;DHT22;28351;51.480;5.706;2024-03-29T04:27:58;7.80;99.90
42715;DHT22;28351;51.480;5.706;2024-03-29T04:30:23;7.80;99.90
42715;DHT22;28351;51.480;5.706;2024-03-29T04:32:49;7.70;99.90
42715;DHT22;28351;51.480;5.706;2024-03-29T04:35:14;7.70;99.90
42715;DHT22;28351;51.480;5.706;2024-03-29T04:37:40;7.70;99.90
42715;DHT22;28351;51.480;5.706;2024-03-29T04:40:06;7.70;99.90
42715;DHT22;28351;51.480;5.706;2024-03-29T04:42:32;7.60;99.90
42715;DHT22;28351;51.480;5.706;2024-03-29T04:44:57;7.70;99.90
42715;DHT22;28351;51.480;5.706;2024-03-29T04:47:23;7.60;99.90
42715;DHT22;28351;51.480;5.706;2024-03-29T04:49:48;7.60;99.90
42715;DHT22;28351;51.480;5.706;2024-03-29T04:52:14;7.50;99.90
42715;DHT22;28351;51.480;5.706;2024-03-29T04:54:40;7.60;99.90
42715;DHT22;28351;51.480;5.706;2024-03-29T04:57:05;7.60;99.90
42715;DHT22;28351;51.480;5.706;2024-03-29T04:59:32;7.50;99.90
42715;DHT22;28351;51.480;5.706;2024-03-29T05:01:59;7.50;99.90
42715;DHT22;28351;51.480;5.706;2024-03-29T05:04:25;7.50;99.90
42715;DHT22;28351;51.480;5.706;2024-03-29T05:06:57;7.50;99.90
42715;DHT22;28351;51.480;5.706;2024-03-29T05:09:24;7.50;99.90
42715;DHT22;28351;51.480;5.706;2024-03-29T05:11:50;7.40;99.90
42715;DHT22;28351;51.480;5.706;2024-03-29T05:14:17;7.50;99.90
42715;DHT22;28351;51.480;5.706;2024-03-29T05:16:44;7.40;99.90
42715;DHT22;28351;51.480;5.706;2024-03-29T05:19:11;7.40;99.90
42715;DHT22;28351;51.480;5.706;2024-03-29T05:21:36;7.40;99.90
42715;DHT22;28351;51.480;5.706;2024-03-29T05:24:02;7.40;99.90
42715;DHT22;28351;51.480;5.706;2024-03-29T05:26:28;7.40;99.90
42715;DHT22;28351;51.480;5.706;2024-03-29T05:28:53;7.30;99.90
42715;DHT22;28351;51.480;5.706;2024-03-29T05:31:22;7.40;99.90
42715;DHT22;28351;51.480;5.706;2024-03-29T05:33:48;7.40;99.90
42715;DHT22;28351;51.480;5.706;2024-03-29T05:36:14;7.40;99.90
42715;DHT22;28351;51.480;5.706;2024-03-29T05:38:40;7.40;99.90
42715;DHT22;28351;51.480;5.706;2024-03-29T05:41:05;7.40;99.90
42715;DHT22;28351;51.480;5.706;2024-03-29T05:43:31;7.40;99.90
42715;DHT22;28351;51.480;5.706;2024-03-29T05:45:57;7.30;99.90
42715;DHT22;28351;51.480;5.706;2024-03-29T05:48:23;7.30;99.90
42715;DHT22;28351;51.480;5.706;2024-03-29T05:50:49;7.40;99.90
42715;DHT22;28351;51.480;5.706;2024-03-29T05:53:14;7.40;99.90
42715;DHT22;28351;51.480;5.706;2024-03-29T05:55:40;7.30;99.90
42715;DHT22;28351;51.480;5.706;2024-03-29T05:58:06;7.30;99.90
42715;DHT22;28351;51.480;5.706;2024-03-29T06:00:32;7.30;99.90
42715;DHT22;28351;51.480;5.706;2024-03-29T06:03:00;7.40;99.90
42715;DHT22;28351;51.480;5.706;2024-03-29T06:05:28;7.40;99.90
42715;DHT22;28351;51.480;5.706;2024-03-29T06:07:53;7.40;99.90
42715;DHT22;28351;51.480;5.706;2024-03-29T06:10:19;7.40;99.90
42715;DHT22;28351;51.480;5.706;2024-03-29T06:12:45;7.40;99.90
42715;DHT22;28351;51.480;5.706;2024-03-29T06:15:10;7.50;99.90
42715;DHT22;28351;51.480;5.706;2024-03-29T06:17:55;7.50;99.90
42715;DHT22;28351;51.480;5.706;2024-03-29T06:20:20;7.50;99.90
42715;DHT22;28351;51.480;5.706;2024-03-29T06:22:46;7.50;99.90
42715;DHT22;28351;51.480;5.706;2024-03-29T06:25:12;7.40;99.90
42715;DHT22;28351;51.480;5.706;2024-03-29T06:27:37;7.50;99.90
42715;DHT22;28351;51.480;5.706;2024-03-29T06:30:04;7.60;99.90
42715;DHT22;28351;51.480;5.706;2024-03-29T06:32:31;7.70;99.90
42715;DHT22;28351;51.480;5.706;2024-03-29T06:34:57;7.70;99.90
42715;DHT22;28351;51.480;5.706;2024-03-29T06:37:23;7.80;99.90
42715;DHT22;28351;51.480;5.706;2024-03-29T06:39:51;7.80;99.90
42715;DHT22;28351;51.480;5.706;2024-03-29T06:42:17;7.90;99.90
42715;DHT22;28351;51.480;5.706;2024-03-29T06:44:42;7.90;99.90
42715;DHT22;28351;51.480;5.706;2024-03-29T06:47:08;7.90;99.90
42715;DHT22;28351;51.480;5.706;2024-03-29T06:49:35;7.90;99.90
42715;DHT22;28351;51.480;5.706;2024-03-29T06:52:01;8.00;99.90
42715;DHT22;28351;51.480;5.706;2024-03-29T06:54:27;8.00;99.90
42715;DHT22;28351;51.480;5.706;2024-03-29T06:56:54;8.00;99.90
42715;DHT22;28351;51.480;5.706;2024-03-29T06:59:19;8.10;99.90
42715;DHT22;28351;51.480;5.706;2024-03-29T07:01:45;8.10;99.90
42715;DHT22;28351;51.480;5.706;2024-03-29T07:04:13;8.00;99.90
42715;DHT22;28351;51.480;5.706;2024-03-29T07:06:39;8.10;99.90
42715;DHT22;28351;51.480;5.706;2024-03-29T07:09:05;8.10;99.90
42715;DHT22;28351;51.480;5.706;2024-03-29T07:11:31;8.10;99.90
42715;DHT22;28351;51.480;5.706;2024-03-29T07:14:02;8.10;99.90
42715;DHT22;28351;51.480;5.706;2024-03-29T07:16:27;8.10;99.90
42715;DHT22;28351;51.480;5.706;2024-03-29T07:18:53;8.20;99.90
42715;DHT22;28351;51.480;5.706;2024-03-29T07:21:19;8.20;99.90
42715;DHT22;28351;51.480;5.706;2024-03-29T07:23:44;8.30;99.90
42715;DHT22;28351;51.480;5.706;2024-03-29T07:26:10;8.50;99.90
42715;DHT22;28351;51.480;5.706;2024-03-29T07:28:37;8.60;99.90
42715;DHT22;28351;51.480;5.706;2024-03-29T07:31:06;8.60;99.90
42715;DHT22;28351;51.480;5.706;2024-03-29T07:33:32;8.60;99.90
42715;DHT22;28351;51.480;5.706;2024-03-29T07:36:05;8.70;99.90
42715;DHT22;28351;51.480;5.706;2024-03-29T07:38:31;8.80;99.90
42715;DHT22;28351;51.480;5.706;2024-03-29T07:40:57;9.00;99.90
42715;DHT22;28351;51.480;5.706;2024-03-29T07:43:22;9.30;99.90
42715;DHT22;28351;51.480;5.706;2024-03-29T07:45:48;9.60;99.90
42715;DHT22;28351;51.480;5.706;2024-03-29T07:48:18;9.80;99.90
42715;DHT22;28351;51.480;5.706;2024-03-29T07:50:44;9.70;99.90
42715;DHT22;28351;51.480;5.706;2024-03-29T07:53:10;9.70;99.90
42715;DHT22;28351;51.480;5.706;2024-03-29T07:55:37;9.80;99.90
42715;DHT22;28351;51.480;5.706;2024-03-29T07:58:03;9.80;99.90
42715;DHT22;28351;51.480;5.706;2024-03-29T08:00:31;9.90;99.90
42715;DHT22;28351;51.480;5.706;2024-03-29T08:02:57;10.00;99.90
42715;DHT22;28351;51.480;5.706;2024-03-29T08:05:23;10.20;99.90
42715;DHT22;28351;51.480;5.706;2024-03-29T08:07:49;10.20;99.90
42715;DHT22;28351;51.480;5.706;2024-03-29T08:10:15;10.10;99.90
42715;DHT22;28351;51.480;5.706;2024-03-29T08:12:40;10.20;99.90
42715;DHT22;28351;51.480;5.706;2024-03-29T08:15:06;10.10;99.90
42715;DHT22;28351;51.480;5.706;2024-03-29T08:17:36;10.10;99.90
42715;DHT22;28351;51.480;5.706;2024-03-29T08:20:02;10.10;99.90
42715;DHT22;28351;51.480;5.706;2024-03-29T08:22:28;10.20;99.90
42715;DHT22;28351;51.480;5.706;2024-03-29T08:24:55;10.20;99.90
42715;DHT22;28351;51.480;5.706;2024-03-29T08:27:20;10.30;99.90
42715;DHT22;28351;51.480;5.706;2024-03-29T08:29:46;10.30;99.90
42715;DHT22;28351;51.480;5.706;2024-03-29T08:32:14;10.30;99.90
42715;DHT22;28351;51.480;5.706;2024-03-29T08:34:40;10.40;99.90
42715;DHT22;28351;51.480;5.706;2024-03-29T08:37:05;10.40;99.90
42715;DHT22;28351;51.480;5.706;2024-03-29T08:39:31;10.40;99.90
42715;DHT22;28351;51.480;5.706;2024-03-29T08:42:00;10.50;99.90
42715;DHT22;28351;51.480;5.706;2024-03-29T08:44:33;10.60;99.90
42715;DHT22;28351;51.480;5.706;2024-03-29T08:46:59;10.60;99.90
42715;DHT22;28351;51.480;5.706;2024-03-29T08:49:29;10.60;99.90
42715;DHT22;28351;51.480;5.706;2024-03-29T08:51:56;10.60;99.90
42715;DHT22;28351;51.480;5.706;2024-03-29T08:54:24;10.60;99.90
42715;DHT22;28351;51.480;5.706;2024-03-29T08:56:50;10.70;99.90
42715;DHT22;28351;51.480;5.706;2024-03-29T08:59:15;10.80;99.90
42715;DHT22;28351;51.480;5.706;2024-03-29T09:01:44;10.80;99.90
42715;DHT22;28351;51.480;5.706;2024-03-29T09:04:10;10.90;99.90
42715;DHT22;28351;51.480;5.706;2024-03-29T09:06:37;11.00;99.90
42715;DHT22;28351;51.480;5.706;2024-03-29T09:09:06;11.00;99.90
42715;DHT22;28351;51.480;5.706;2024-03-29T09:11:33;11.20;99.90
42715;DHT22;28351;51.480;5.706;2024-03-29T09:13:59;11.40;99.90
42715;DHT22;28351;51.480;5.706;2024-03-29T09:16:25;11.30;99.90
42715;DHT22;28351;51.480;5.706;2024-03-29T09:18:51;11.30;99.90
42715;DHT22;28351;51.480;5.706;2024-03-29T09:21:17;11.20;99.90
42715;DHT22;28351;51.480;5.706;2024-03-29T09:23:45;11.20;99.90
42715;DHT22;28351;51.480;5.706;2024-03-29T09:26:11;11.30;99.90
42715;DHT22;28351;51.480;5.706;2024-03-29T09:28:37;11.30;99.90
42715;DHT22;28351;51.480;5.706;2024-03-29T09:31:03;11.40;99.90
42715;DHT22;28351;51.480;5.706;2024-03-29T09:33:29;11.50;99.90
42715;DHT22;28351;51.480;5.706;2024-03-29T09:35:54;11.60;99.90
42715;DHT22;28351;51.480;5.706;2024-03-29T09:38:21;11.60;99.90
42715;DHT22;28351;51.480;5.706;2024-03-29T09:40:49;11.80;99.90
42715;DHT22;28351;51.480;5.706;2024-03-29T09:43:16;11.80;99.90
42715;DHT22;28351;51.480;5.706;2024-03-29T09:45:43;12.00;99.90
42715;DHT22;28351;51.480;5.706;2024-03-29T09:48:09;12.30;99.90
42715;DHT22;28351;51.480;5.706;2024-03-29T09:50:54;12.50;99.90
42715;DHT22;28351;51.480;5.706;2024-03-29T09:53:21;12.70;99.90
42715;DHT22;28351;51.480;5.706;2024-03-29T09:56:05;12.60;99.90
42715;DHT22;28351;51.480;5.706;2024-03-29T09:58:34;12.40;99.90
42715;DHT22;28351;51.480;5.706;2024-03-29T10:01:23;12.50;99.90
42715;DHT22;28351;51.480;5.706;2024-03-29T10:03:56;12.60;99.90
42715;DHT22;28351;51.480;5.706;2024-03-29T10:06:28;12.80;99.90
42715;DHT22;28351;51.480;5.706;2024-03-29T10:08:56;12.90;99.90
42715;DHT22;28351;51.480;5.706;2024-03-29T10:11:23;12.90;99.90
42715;DHT22;28351;51.480;5.706;2024-03-29T10:13:50;13.00;99.90
42715;DHT22;28351;51.480;5.706;2024-03-29T10:16:20;13.30;99.90
42715;DHT22;28351;51.480;5.706;2024-03-29T10:18:50;13.30;99.90
42715;DHT22;28351;51.480;5.706;2024-03-29T10:21:16;13.50;99.90
42715;DHT22;28351;51.480;5.706;2024-03-29T10:23:41;13.70;99.90
42715;DHT22;28351;51.480;5.706;2024-03-29T10:26:09;13.80;99.90
42715;DHT22;28351;51.480;5.706;2024-03-29T10:28:35;14.00;99.90
42715;DHT22;28351;51.480;5.706;2024-03-29T10:31:03;13.90;99.90
42715;DHT22;28351;51.480;5.706;2024-03-29T10:33:31;13.90;99.90
42715;DHT22;28351;51.480;5.706;2024-03-29T10:35:58;13.90;99.90
42715;DHT22;28351;51.480;5.706;2024-03-29T10:38:32;13.80;99.90
42715;DHT22;28351;51.480;5.706;2024-03-29T10:40:58;13.80;99.90
42715;DHT22;28351;51.480;5.706;2024-03-29T10:43:24;13.70;99.90
42715;DHT22;28351;51.480;5.706;2024-03-29T10:45:50;13.60;99.90
42715;DHT22;28351;51.480;5.706;2024-03-29T10:48:25;13.80;99.90
42715;DHT22;28351;51.480;5.706;2024-03-29T10:50:54;13.90;99.90
42715;DHT22;28351;51.480;5.706;2024-03-29T10:53:22;14.10;99.90
42715;DHT22;28351;51.480;5.706;2024-03-29T10:55:58;14.20;99.90
42715;DHT22;28351;51.480;5.706;2024-03-29T10:58:35;14.00;99.90
42715;DHT22;28351;51.480;5.706;2024-03-29T11:01:01;13.80;99.90
42715;DHT22;28351;51.480;5.706;2024-03-29T11:03:39;13.60;99.90
42715;DHT22;28351;51.480;5.706;2024-03-29T11:06:06;13.40;99.90
42715;DHT22;28351;51.480;5.706;2024-03-29T11:08:34;13.50;99.90
42715;DHT22;28351;51.480;5.706;2024-03-29T11:11:04;13.50;99.90
42715;DHT22;28351;51.480;5.706;2024-03-29T11:14:02;13.50;99.90
42715;DHT22;28351;51.480;5.706;2024-03-29T11:16:28;13.40;99.90
42715;DHT22;28351;51.480;5.706;2024-03-29T11:18:54;13.50;99.90
42715;DHT22;28351;51.480;5.706;2024-03-29T11:21:20;13.70;99.90
42715;DHT22;28351;51.480;5.706;2024-03-29T11:23:51;13.90;99.90
42715;DHT22;28351;51.480;5.706;2024-03-29T11:26:17;14.40;99.90
42715;DHT22;28351;51.480;5.706;2024-03-29T11:28:49;14.60;99.90
42715;DHT22;28351;51.480;5.706;2024-03-29T11:31:15;15.60;99.80
42715;DHT22;28351;51.480;5.706;2024-03-29T11:36:20;15.40;98.50
42715;DHT22;28351;51.480;5.706;2024-03-29T11:38:59;15.00;98.90
42715;DHT22;28351;51.480;5.706;2024-03-29T11:41:26;15.00;98.70
42715;DHT22;28351;51.480;5.706;2024-03-29T11:43:55;14.60;99.20
42715;DHT22;28351;51.480;5.706;2024-03-29T11:46:31;14.70;99.30
42715;DHT22;28351;51.480;5.706;2024-03-29T11:49:00;15.60;98.10
42715;DHT22;28351;51.480;5.706;2024-03-29T11:51:26;16.80;95.40
42715;DHT22;28351;51.480;5.706;2024-03-29T11:53:52;17.90;95.20
42715;DHT22;28351;51.480;5.706;2024-03-29T11:56:18;18.90;93.60
42715;DHT22;28351;51.480;5.706;2024-03-29T11:58:44;19.70;91.40
42715;DHT22;28351;51.480;5.706;2024-03-29T12:01:10;19.10;92.20
42715;DHT22;28351;51.480;5.706;2024-03-29T12:03:38;19.00;92.30
42715;DHT22;28351;51.480;5.706;2024-03-29T12:06:07;19.20;92.00
42715;DHT22;28351;51.480;5.706;2024-03-29T12:08:34;17.70;92.80
42715;DHT22;28351;51.480;5.706;2024-03-29T12:11:02;17.30;94.10
42715;DHT22;28351;51.480;5.706;2024-03-29T12:13:28;18.50;93.30
42715;DHT22;28351;51.480;5.706;2024-03-29T12:15:55;19.20;91.90
42715;DHT22;28351;51.480;5.706;2024-03-29T12:18:21;19.80;90.80
42715;DHT22;28351;51.480;5.706;2024-03-29T12:20:48;19.10;91.70
42715;DHT22;28351;51.480;5.706;2024-03-29T12:23:16;18.70;91.70
42715;DHT22;28351;51.480;5.706;2024-03-29T12:25:43;19.50;92.10
42715;DHT22;28351;51.480;5.706;2024-03-29T12:28:10;19.40;91.30
42715;DHT22;28351;51.480;5.706;2024-03-29T12:30:36;18.70;92.30
42715;DHT22;28351;51.480;5.706;2024-03-29T12:33:04;19.10;92.30
42715;DHT22;28351;51.480;5.706;2024-03-29T12:35:32;18.70;92.00
42715;DHT22;28351;51.480;5.706;2024-03-29T12:38:03;20.00;90.60
42715;DHT22;28351;51.480;5.706;2024-03-29T12:40:31;21.00;89.30
42715;DHT22;28351;51.480;5.706;2024-03-29T12:43:07;21.20;88.40
42715;DHT22;28351;51.480;5.706;2024-03-29T12:45:38;19.80;89.50
42715;DHT22;28351;51.480;5.706;2024-03-29T12:48:26;20.00;90.40
42715;DHT22;28351;51.480;5.706;2024-03-29T12:50:52;20.00;89.80
42715;DHT22;28351;51.480;5.706;2024-03-29T12:53:19;21.40;88.60
42715;DHT22;28351;51.480;5.706;2024-03-29T12:55:46;22.60;85.00
42715;DHT22;28351;51.480;5.706;2024-03-29T12:58:13;21.60;86.10
42715;DHT22;28351;51.480;5.706;2024-03-29T13:00:41;22.30;87.80
42715;DHT22;28351;51.480;5.706;2024-03-29T13:03:07;23.40;85.70
42715;DHT22;28351;51.480;5.706;2024-03-29T13:05:35;23.70;82.40
42715;DHT22;28351;51.480;5.706;2024-03-29T13:08:05;23.50;83.50
42715;DHT22;28351;51.480;5.706;2024-03-29T13:10:32;22.80;85.00
42715;DHT22;28351;51.480;5.706;2024-03-29T13:12:58;22.30;85.00
42715;DHT22;28351;51.480;5.706;2024-03-29T13:15:24;22.00;86.10
42715;DHT22;28351;51.480;5.706;2024-03-29T13:17:55;23.20;84.80
42715;DHT22;28351;51.480;5.706;2024-03-29T13:20:22;23.50;82.80
42715;DHT22;28351;51.480;5.706;2024-03-29T13:22:49;23.80;81.80
42715;DHT22;28351;51.480;5.706;2024-03-29T13:25:16;24.10;82.40
42715;DHT22;28351;51.480;5.706;2024-03-29T13:27:43;22.10;84.50
42715;DHT22;28351;51.480;5.706;2024-03-29T13:30:11;20.80;89.70
42715;DHT22;28351;51.480;5.706;2024-03-29T13:32:39;20.80;89.50
42715;DHT22;28351;51.480;5.706;2024-03-29T13:35:06;20.10;90.90
42715;DHT22;28351;51.480;5.706;2024-03-29T13:37:38;18.60;91.00
42715;DHT22;28351;51.480;5.706;2024-03-29T13:40:04;17.50;92.50
42715;DHT22;28351;51.480;5.706;2024-03-29T13:42:30;17.20;93.70
42715;DHT22;28351;51.480;5.706;2024-03-29T13:44:56;17.10;93.90
42715;DHT22;28351;51.480;5.706;2024-03-29T13:47:22;17.00;94.90
42715;DHT22;28351;51.480;5.706;2024-03-29T13:49:48;18.40;94.50
42715;DHT22;28351;51.480;5.706;2024-03-29T13:52:16;19.50;92.00
42715;DHT22;28351;51.480;5.706;2024-03-29T13:54:45;19.20;91.60
42715;DHT22;28351;51.480;5.706;2024-03-29T13:57:15;19.00;91.70
42715;DHT22;28351;51.480;5.706;2024-03-29T13:59:40;19.60;92.20
42715;DHT22;28351;51.480;5.706;2024-03-29T14:02:10;19.60;91.40
42715;DHT22;28351;51.480;5.706;2024-03-29T14:04:35;19.90;91.10
42715;DHT22;28351;51.480;5.706;2024-03-29T14:07:01;20.30;90.40
42715;DHT22;28351;51.480;5.706;2024-03-29T14:09:45;19.10;90.20
42715;DHT22;28351;51.480;5.706;2024-03-29T14:12:17;18.60;91.80
42715;DHT22;28351;51.480;5.706;2024-03-29T14:14:48;19.60;90.50
42715;DHT22;28351;51.480;5.706;2024-03-29T14:17:38;20.20;88.80
42715;DHT22;28351;51.480;5.706;2024-03-29T14:20:04;19.40;90.90
42715;DHT22;28351;51.480;5.706;2024-03-29T14:22:30;18.90;91.10
42715;DHT22;28351;51.480;5.706;2024-03-29T14:24:58;18.30;92.30
42715;DHT22;28351;51.480;5.706;2024-03-29T14:27:24;18.00;91.80
42715;DHT22;28351;51.480;5.706;2024-03-29T14:29:50;17.70;92.70
42715;DHT22;28351;51.480;5.706;2024-03-29T14:32:15;17.60;91.80
42715;DHT22;28351;51.480;5.706;2024-03-29T14:34:41;17.50;92.50
42715;DHT22;28351;51.480;5.706;2024-03-29T14:37:12;19.20;91.60
42715;DHT22;28351;51.480;5.706;2024-03-29T14:39:39;21.40;87.30
42715;DHT22;28351;51.480;5.706;2024-03-29T14:42:08;21.30;86.90
42715;DHT22;28351;51.480;5.706;2024-03-29T14:44:37;19.80;87.80
42715;DHT22;28351;51.480;5.706;2024-03-29T14:47:02;18.50;90.30
42715;DHT22;28351;51.480;5.706;2024-03-29T14:49:28;17.90;92.00
42715;DHT22;28351;51.480;5.706;2024-03-29T14:51:53;17.70;91.20
42715;DHT22;28351;51.480;5.706;2024-03-29T14:54:19;17.40;91.40
42715;DHT22;28351;51.480;5.706;2024-03-29T14:56:44;17.50;92.40
42715;DHT22;28351;51.480;5.706;2024-03-29T14:59:11;17.60;92.80
42715;DHT22;28351;51.480;5.706;2024-03-29T15:01:37;17.40;92.30
42715;DHT22;28351;51.480;5.706;2024-03-29T15:04:03;17.30;93.60
42715;DHT22;28351;51.480;5.706;2024-03-29T15:06:29;17.10;92.80
42715;DHT22;28351;51.480;5.706;2024-03-29T15:08:56;16.90;93.20
42715;DHT22;28351;51.480;5.706;2024-03-29T15:11:24;16.80;93.20
42715;DHT22;28351;51.480;5.706;2024-03-29T15:13:50;16.70;93.00
42715;DHT22;28351;51.480;5.706;2024-03-29T15:16:18;16.60;93.30
42715;DHT22;28351;51.480;5.706;2024-03-29T15:18:45;16.50;93.80
42715;DHT22;28351;51.480;5.706;2024-03-29T15:21:11;16.30;93.60
42715;DHT22;28351;51.480;5.706;2024-03-29T15:23:37;16.20;93.10
42715;DHT22;28351;51.480;5.706;2024-03-29T15:26:03;16.30;93.70
42715;DHT22;28351;51.480;5.706;2024-03-29T15:28:31;16.70;93.40
42715;DHT22;28351;51.480;5.706;2024-03-29T15:31:18;17.70;92.50
42715;DHT22;28351;51.480;5.706;2024-03-29T15:33:48;19.10;91.20
42715;DHT22;28351;51.480;5.706;2024-03-29T15:36:14;19.30;90.60
42715;DHT22;28351;51.480;5.706;2024-03-29T15:38:39;19.60;90.60
42715;DHT22;28351;51.480;5.706;2024-03-29T15:41:05;19.10;90.60